createdAt,value
2022-08-19T00:01:38.667Z,97878.69
2022-08-19T00:04:08.651Z,97808.09
2022-08-19T00:06:37.608Z,97821.09
2022-08-19T00:09:06.900Z,97821.09
2022-08-19T00:11:34.546Z,97836.19
2022-08-19T00:14:01.298Z,97873.16
2022-08-19T00:16:28.318Z,97875.69
2022-08-19T00:18:55.712Z,97876.19
2022-08-19T00:21:24.055Z,97876.50
2022-08-19T00:23:50.888Z,97824.03
2022-08-19T00:26:17.518Z,97811.13
2022-08-19T00:28:44.148Z,97827.81
2022-08-19T00:31:11.513Z,97823.41
2022-08-19T00:33:38.138Z,97781.31
2022-08-19T00:36:08.045Z,97774.13
2022-08-19T00:38:38.086Z,97784.88
2022-08-19T00:41:09.006Z,97791.06
2022-08-19T00:43:35.840Z,97821.09
2022-08-19T00:46:02.698Z,97836.72
2022-08-19T00:48:29.507Z,97799.63
2022-08-19T00:50:56.259Z,97796.38
2022-08-19T00:53:27.043Z,97844.53
2022-08-19T00:55:57.676Z,97783.72
2022-08-19T00:58:29.843Z,97749.41
2022-08-19T01:00:56.644Z,97784.03
2022-08-19T01:03:23.742Z,97761.50
2022-08-19T01:05:52.880Z,97836.56
2022-08-19T01:08:20.379Z,97806.66
2022-08-19T01:10:57.442Z,97792.34
2022-08-19T01:13:27.578Z,97810.09
2022-08-19T01:16:07.303Z,97803.50
2022-08-19T01:18:38.962Z,97770.13
2022-08-19T01:21:17.009Z,97812.09
2022-08-19T01:23:44.965Z,97848.84
2022-08-19T01:26:18.720Z,97848.81
2022-08-19T01:28:48.112Z,97832.50
2022-08-19T01:31:26.432Z,97746.25
2022-08-19T01:33:56.400Z,97826.13
2022-08-19T01:36:29.608Z,97766.28
2022-08-19T01:38:57.488Z,97808.88
2022-08-19T01:41:24.041Z,97789.50
2022-08-19T01:44:13.665Z,97760.53
2022-08-19T01:46:38.888Z,97822.91
2022-08-19T01:49:06.315Z,97805.19
2022-08-19T01:51:39.965Z,97770.22
2022-08-19T01:54:11.597Z,97795.50
2022-08-19T01:56:38.450Z,97762.13
2022-08-19T01:59:11.528Z,97810.03
2022-08-19T02:01:38.416Z,97807.69
2022-08-19T02:04:05.106Z,97761.22
2022-08-19T02:06:31.755Z,97782.19
2022-08-19T02:08:58.352Z,97765.00
2022-08-19T02:11:28.757Z,97722.50
2022-08-19T02:13:56.401Z,97752.75
2022-08-19T02:16:23.379Z,97739.66
2022-08-19T02:18:50.616Z,97731.41
2022-08-19T02:21:22.759Z,97808.47
2022-08-19T02:23:51.225Z,97809.53
2022-08-19T02:26:18.727Z,97805.81
2022-08-19T02:28:45.782Z,97806.13
2022-08-19T02:31:19.468Z,97810.44
2022-08-19T02:33:47.063Z,97755.41
2022-08-19T02:36:15.538Z,97742.56
2022-08-19T02:38:43.322Z,97821.22
2022-08-19T02:41:20.757Z,97812.13
2022-08-19T02:44:26.626Z,97805.44
2022-08-19T02:46:36.326Z,97801.94
2022-08-19T02:49:08.234Z,97762.41
2022-08-19T02:51:38.827Z,97766.66
2022-08-19T02:54:06.642Z,97767.44
2022-08-19T02:56:36.535Z,97824.69
2022-08-19T02:59:04.083Z,97796.47
2022-08-19T03:01:33.508Z,97776.53
2022-08-19T03:04:03.460Z,97824.66
2022-08-19T03:06:31.273Z,97823.28
2022-08-19T03:08:58.326Z,97830.25
2022-08-19T03:11:28.367Z,97830.53
2022-08-19T03:13:55.344Z,97796.13
2022-08-19T03:16:24.391Z,97760.06
2022-08-19T03:18:52.010Z,97769.75
2022-08-19T03:21:22.205Z,97835.59
2022-08-19T03:23:48.957Z,97824.59
2022-08-19T03:26:17.075Z,97798.00
2022-08-19T03:28:49.483Z,97789.91
2022-08-19T03:31:41.730Z,97796.94
2022-08-19T03:34:13.521Z,97836.72
2022-08-19T03:36:40.765Z,97836.50
2022-08-19T03:39:07.409Z,97802.13
2022-08-19T03:41:45.152Z,97847.84
2022-08-19T03:44:19.294Z,97845.25
2022-08-19T03:46:55.509Z,97783.53
2022-08-19T03:49:27.205Z,97787.63
2022-08-19T03:51:56.917Z,97844.22
2022-08-19T03:54:25.310Z,97830.94
2022-08-19T03:56:54.050Z,97823.78
2022-08-19T03:59:31.020Z,97839.34
2022-08-19T04:02:00.691Z,97808.00
2022-08-19T04:04:29.308Z,97852.75
2022-08-19T04:06:57.085Z,97778.50
2022-08-19T04:09:23.752Z,97788.97
2022-08-19T04:11:53.558Z,97871.91
2022-08-19T04:14:23.195Z,97812.50
2022-08-19T04:17:15.187Z,97823.03
2022-08-19T04:19:42.217Z,97803.25
2022-08-19T04:22:08.807Z,97809.72
2022-08-19T04:24:36.036Z,97841.03
2022-08-19T04:27:03.289Z,97802.16
2022-08-19T04:29:30.389Z,97812.84
2022-08-19T04:31:57.807Z,97875.38
2022-08-19T04:34:26.290Z,97874.00
2022-08-19T04:36:55.047Z,97880.22
2022-08-19T04:39:28.640Z,97837.97
2022-08-19T04:41:55.277Z,97832.63
2022-08-19T04:44:22.290Z,97819.66
2022-08-19T04:46:51.207Z,97813.78
2022-08-19T04:49:23.473Z,97869.75
2022-08-19T04:51:52.535Z,97828.84
2022-08-19T04:54:37.686Z,97884.47
2022-08-19T04:57:10.735Z,97877.56
2022-08-19T04:59:39.546Z,97881.25
2022-08-19T05:02:08.486Z,97872.25
2022-08-19T05:04:35.316Z,97810.22
2022-08-19T05:07:02.594Z,97821.59
2022-08-19T05:09:52.635Z,97822.03
2022-08-19T05:12:18.273Z,97852.75
2022-08-19T05:14:45.295Z,97869.94
2022-08-19T05:17:27.238Z,97831.63
2022-08-19T05:19:56.270Z,97837.59
2022-08-19T05:22:22.832Z,97809.44
2022-08-19T05:25:11.196Z,97828.53
2022-08-19T05:27:36.535Z,97816.25
2022-08-19T05:30:03.865Z,97828.28
2022-08-19T05:32:31.607Z,97852.25
2022-08-19T05:34:58.244Z,97803.19
2022-08-19T05:37:24.956Z,97870.72
2022-08-19T05:39:51.836Z,97855.00
2022-08-19T05:42:19.074Z,97836.28
2022-08-19T05:44:45.609Z,97798.66
2022-08-19T05:47:14.158Z,97815.91
2022-08-19T05:49:40.737Z,97871.53
2022-08-19T05:52:11.075Z,97852.28
2022-08-19T05:54:39.575Z,97840.78
2022-08-19T05:57:06.334Z,97853.53
2022-08-19T05:59:33.201Z,97899.72
2022-08-19T06:02:00.582Z,97808.41
2022-08-19T06:04:27.259Z,97843.84
2022-08-19T06:06:54.630Z,97895.78
2022-08-19T06:09:22.922Z,97910.09
2022-08-19T06:11:56.692Z,97853.56
2022-08-19T06:14:28.237Z,97847.91
2022-08-19T06:16:55.361Z,97890.28
2022-08-19T06:19:26.671Z,97908.88
2022-08-19T06:21:54.256Z,97920.63
2022-08-19T06:24:24.238Z,97800.56
2022-08-19T06:26:55.649Z,97883.03
2022-08-19T06:29:25.769Z,97851.94
2022-08-19T06:31:55.518Z,97931.84
2022-08-19T06:34:22.135Z,97886.25
2022-08-19T06:36:50.718Z,97935.06
2022-08-19T06:39:26.839Z,97892.22
2022-08-19T06:41:58.996Z,97861.22
2022-08-19T06:44:31.873Z,97868.13
2022-08-19T06:46:58.746Z,97931.41
2022-08-19T06:49:25.534Z,97860.56
2022-08-19T06:51:52.294Z,97848.19
2022-08-19T06:54:20.138Z,97847.56
2022-08-19T06:56:47.526Z,97962.94
2022-08-19T06:59:20.489Z,97898.69
2022-08-19T07:01:50.268Z,97849.94
2022-08-19T07:04:27.727Z,97931.94
2022-08-19T07:07:00.679Z,97886.50
2022-08-19T07:09:57.132Z,97910.38
2022-08-19T07:12:30.178Z,97966.88
2022-08-19T07:14:58.249Z,97929.69
2022-08-19T07:17:24.870Z,97907.34
2022-08-19T07:19:51.818Z,97976.13
2022-08-19T07:22:22.494Z,97930.50
2022-08-19T07:24:51.937Z,97949.22
2022-08-19T07:27:19.313Z,97934.84
2022-08-19T07:29:56.044Z,97921.53
2022-08-19T07:32:25.727Z,97944.16
2022-08-19T07:34:52.372Z,97957.59
2022-08-19T07:37:19.079Z,97967.66
2022-08-19T07:39:45.722Z,97940.94
2022-08-19T07:42:13.259Z,97936.75
2022-08-19T07:47:06.891Z,97964.34
2022-08-19T07:49:38.671Z,97932.97
2022-08-19T07:52:09.126Z,97984.94
2022-08-19T07:54:38.612Z,98006.03
2022-08-19T07:57:05.963Z,98004.00
2022-08-19T07:59:33.069Z,97990.25
2022-08-19T08:01:59.806Z,97922.94
2022-08-19T08:04:27.675Z,98010.47
2022-08-19T08:06:54.664Z,97944.47
2022-08-19T08:09:34.713Z,98012.72
2022-08-19T08:12:32.517Z,98022.22
2022-08-19T08:14:55.941Z,97998.13
2022-08-19T08:17:30.899Z,98018.22
2022-08-19T08:20:14.137Z,97967.19
2022-08-19T08:22:47.772Z,98004.81
2022-08-19T08:25:19.019Z,97980.63
2022-08-19T08:27:48.147Z,97971.34
2022-08-19T08:30:24.999Z,98011.91
2022-08-19T08:32:52.295Z,98030.56
2022-08-19T08:35:22.313Z,98027.75
2022-08-19T08:37:51.309Z,98035.50
2022-08-19T08:40:39.691Z,98033.66
2022-08-19T08:43:44.922Z,98027.13
2022-08-19T08:46:31.116Z,98036.69
2022-08-19T08:49:06.763Z,98043.31
2022-08-19T08:51:38.097Z,97990.16
2022-08-19T08:54:07.337Z,98036.91
2022-08-19T08:56:39.480Z,98001.72
2022-08-19T08:59:11.655Z,97999.75
2022-08-19T09:01:38.348Z,97992.63
2022-08-19T09:04:07.867Z,98021.22
2022-08-19T09:06:50.164Z,97995.59
2022-08-19T09:09:34.829Z,98002.84
2022-08-19T09:12:27.051Z,98045.28
2022-08-19T09:15:02.463Z,98048.09
2022-08-19T09:17:32.268Z,98039.66
2022-08-19T09:20:09.020Z,98011.25
2022-08-19T09:22:40.129Z,98053.16
2022-08-19T09:25:09.424Z,98055.59
2022-08-19T09:27:43.237Z,97995.06
2022-08-19T09:30:23.109Z,97996.72
2022-08-19T09:32:52.858Z,98013.53
2022-08-19T09:35:24.327Z,98050.50
2022-08-19T09:37:54.853Z,98006.66
2022-08-19T09:40:25.269Z,98014.28
2022-08-19T09:42:52.552Z,98028.81
2022-08-19T09:45:21.609Z,98043.88
2022-08-19T09:47:49.318Z,98002.94
2022-08-19T09:50:16.321Z,97938.63
2022-08-19T09:52:55.111Z,98031.72
2022-08-19T09:55:32.053Z,98012.47
2022-08-19T09:58:03.189Z,97981.25
2022-08-19T10:00:30.611Z,98039.72
2022-08-19T10:02:57.160Z,98012.91
2022-08-19T10:05:26.872Z,98042.88
2022-08-19T10:07:53.941Z,98037.50
2022-08-19T10:10:23.751Z,97977.03
2022-08-19T10:12:51.259Z,98011.09
2022-08-19T10:15:18.000Z,98006.56
2022-08-19T10:17:56.437Z,98036.09
2022-08-19T10:20:23.172Z,97975.34
2022-08-19T10:22:51.883Z,97989.25
2022-08-19T10:25:20.018Z,97999.59
2022-08-19T10:27:51.187Z,97997.00
2022-08-19T10:30:18.327Z,98015.13
2022-08-19T10:32:47.104Z,98029.72
2022-08-19T10:35:21.703Z,97992.66
2022-08-19T10:37:56.807Z,97971.22
2022-08-19T10:40:24.779Z,98015.47
2022-08-19T10:42:51.410Z,97989.72
2022-08-19T10:45:18.291Z,97984.09
2022-08-19T10:47:44.950Z,97987.53
2022-08-19T10:50:12.199Z,97952.78
2022-08-19T10:52:49.801Z,98030.16
2022-08-19T10:55:23.871Z,98005.50
2022-08-19T10:58:02.170Z,97975.09
2022-08-19T11:00:29.642Z,97981.81
2022-08-19T11:02:56.187Z,97985.88
2022-08-19T11:05:24.499Z,97965.22
2022-08-19T11:07:51.592Z,97966.31
2022-08-19T11:10:21.373Z,97935.72
2022-08-19T11:12:48.822Z,97999.94
2022-08-19T11:15:15.747Z,97977.38
2022-08-19T11:17:43.028Z,97978.94
2022-08-19T11:20:11.385Z,97963.13
2022-08-19T11:22:41.437Z,97960.94
2022-08-19T11:25:10.287Z,97960.41
2022-08-19T11:27:43.454Z,97977.34
2022-08-19T11:30:13.206Z,98021.97
2022-08-19T11:32:45.668Z,97949.69
2022-08-19T11:35:13.937Z,97978.72
2022-08-19T11:37:40.504Z,97974.34
2022-08-19T11:40:08.034Z,98001.63
2022-08-19T11:42:35.024Z,97958.66
2022-08-19T11:45:01.630Z,98017.88
2022-08-19T11:47:28.184Z,97969.53
2022-08-19T11:49:55.059Z,97940.53
2022-08-19T11:52:21.595Z,97952.47
2022-08-19T11:54:48.420Z,97949.69
2022-08-19T11:57:15.241Z,97948.28
2022-08-19T11:59:41.807Z,97983.38
2022-08-19T12:02:08.353Z,97968.75
2022-08-19T12:04:35.726Z,97922.59
2022-08-19T12:07:02.296Z,97966.34
2022-08-19T12:09:31.069Z,97952.06
2022-08-19T12:11:57.741Z,97954.28
2022-08-19T12:14:24.389Z,97948.59
2022-08-19T12:16:52.716Z,97918.22
2022-08-19T12:19:21.713Z,97952.50
2022-08-19T12:21:50.100Z,97968.53
2022-08-19T12:24:16.870Z,97899.94
2022-08-19T12:26:53.704Z,97953.66
2022-08-19T12:29:23.798Z,97854.22
2022-08-19T12:31:51.003Z,97924.72
2022-08-19T12:34:17.729Z,97910.91
2022-08-19T12:36:44.287Z,97874.13
2022-08-19T12:39:11.179Z,97891.63
2022-08-19T12:41:45.055Z,97870.00
2022-08-19T12:44:21.211Z,97875.22
2022-08-19T12:46:55.751Z,97875.66
2022-08-19T12:49:52.036Z,97899.84
2022-08-19T12:52:10.221Z,97875.81
2022-08-19T12:54:38.210Z,97932.53
2022-08-19T12:57:09.181Z,97927.94
2022-08-19T12:59:36.640Z,97844.06
2022-08-19T13:02:05.523Z,97774.56
2022-08-19T13:04:32.521Z,97850.72
2022-08-19T13:06:59.620Z,97897.13
2022-08-19T13:09:26.295Z,97845.63
2022-08-19T13:11:52.856Z,97874.00
2022-08-19T13:14:19.552Z,97592.56
2022-08-19T13:16:46.148Z,97873.59
2022-08-19T13:19:12.767Z,97899.75
2022-08-19T13:21:39.735Z,97915.38
2022-08-19T13:24:09.452Z,97787.84
2022-08-19T13:26:36.027Z,97745.53
2022-08-19T13:29:02.668Z,97904.91
2022-08-19T13:31:32.186Z,97820.66
2022-08-19T13:33:58.764Z,97798.38
2022-08-19T13:36:25.291Z,97880.34
2022-08-19T13:38:51.947Z,97864.09
2022-08-19T13:41:18.578Z,97855.41
2022-08-19T13:43:45.293Z,97877.06
2022-08-19T13:46:13.221Z,97938.25
2022-08-19T13:48:39.850Z,97807.56
2022-08-19T13:51:06.493Z,97840.75
2022-08-19T13:53:33.162Z,97866.78
2022-08-19T13:55:59.721Z,97874.72
2022-08-19T13:58:26.442Z,97943.25
2022-08-19T14:00:53.183Z,97930.16
2022-08-19T14:03:20.025Z,97891.41
2022-08-19T14:05:46.734Z,97635.28
2022-08-19T14:08:13.447Z,97896.38
2022-08-19T14:10:40.133Z,97903.34
2022-08-19T14:13:06.809Z,97733.75
2022-08-19T14:15:33.430Z,97847.63
2022-08-19T14:18:00.156Z,97854.28
2022-08-19T14:20:27.603Z,97933.63
2022-08-19T14:22:55.490Z,97935.38
2022-08-19T14:25:27.517Z,97940.88
2022-08-19T14:27:55.098Z,97796.53
2022-08-19T14:30:27.866Z,97901.13
2022-08-19T14:32:59.647Z,97905.47
2022-08-19T14:35:28.607Z,97906.59
2022-08-19T14:37:55.983Z,97871.81
2022-08-19T14:40:25.640Z,97956.84
2022-08-19T14:42:58.984Z,97950.00
2022-08-19T14:45:29.388Z,97940.63
2022-08-19T14:47:56.333Z,97903.97
2022-08-19T14:50:23.420Z,97893.81
2022-08-19T14:52:50.812Z,97924.78
2022-08-19T14:55:18.592Z,97915.59
2022-08-19T14:57:45.989Z,97929.31
2022-08-19T15:00:13.714Z,97837.63
2022-08-19T15:02:41.296Z,97679.41
2022-08-19T15:05:08.491Z,97919.50
2022-08-19T15:07:35.035Z,97864.81
2022-08-19T15:10:01.958Z,97833.22
2022-08-19T15:12:29.976Z,97871.03
2022-08-19T15:14:57.208Z,97893.03
2022-08-19T15:17:44.994Z,97834.16
2022-08-19T15:20:13.587Z,97892.72
2022-08-19T15:22:40.528Z,97846.84
2022-08-19T15:25:11.545Z,97878.72
2022-08-19T15:27:39.858Z,97929.63
2022-08-19T15:30:08.049Z,97926.00
2022-08-19T15:32:35.299Z,97785.00
2022-08-19T15:35:01.883Z,97860.44
2022-08-19T15:37:28.674Z,97780.88
2022-08-19T15:39:55.330Z,97879.94
2022-08-19T15:42:29.410Z,97836.09
2022-08-19T15:44:58.260Z,97796.91
2022-08-19T15:47:35.132Z,97870.75
2022-08-19T15:50:12.753Z,97870.31
2022-08-19T15:52:50.056Z,97823.75
2022-08-19T15:55:29.929Z,97816.28
2022-08-19T15:58:20.547Z,97894.88
2022-08-19T16:00:57.395Z,97892.38
2022-08-19T16:03:25.021Z,97744.97
2022-08-19T16:05:53.476Z,97812.25
2022-08-19T16:08:20.044Z,97755.22
2022-08-19T16:10:46.781Z,97889.06
2022-08-19T16:13:13.332Z,97856.47
2022-08-19T16:15:40.109Z,97773.13
2022-08-19T16:18:06.781Z,97867.06
2022-08-19T16:20:35.590Z,97720.78
2022-08-19T16:23:02.656Z,97900.84
2022-08-19T16:25:29.468Z,97850.06
2022-08-19T16:28:07.384Z,97874.03
2022-08-19T16:30:35.961Z,97883.63
2022-08-19T16:33:02.691Z,97715.94
2022-08-19T16:35:29.503Z,97882.31
2022-08-19T16:37:56.489Z,97744.84
2022-08-19T16:40:23.313Z,97841.03
2022-08-19T16:42:49.879Z,97893.22
2022-08-19T16:45:16.637Z,97897.78
2022-08-19T16:47:43.191Z,97925.75
2022-08-19T16:50:09.940Z,97815.50
2022-08-19T16:52:36.694Z,97836.22
2022-08-19T16:55:05.332Z,97866.94
2022-08-19T16:57:32.271Z,97771.06
2022-08-19T16:59:59.454Z,97938.53
2022-08-19T17:02:29.709Z,97849.34
2022-08-19T17:04:59.053Z,97944.88
2022-08-19T17:07:28.068Z,97906.59
2022-08-19T17:09:55.992Z,97936.63
2022-08-19T17:12:30.190Z,97942.84
2022-08-19T17:14:57.627Z,97875.47
2022-08-19T17:17:28.745Z,97906.63
2022-08-19T17:19:55.827Z,97875.56
2022-08-19T17:22:22.476Z,97875.41
2022-08-19T17:24:49.347Z,97887.53
2022-08-19T17:27:15.899Z,97868.28
2022-08-19T17:29:46.757Z,97870.59
2022-08-19T17:32:14.047Z,97884.06
2022-08-19T17:34:40.744Z,97891.41
2022-08-19T17:37:07.437Z,97862.16
2022-08-19T17:39:39.010Z,97876.13
2022-08-19T17:42:07.031Z,97819.75
2022-08-19T17:44:35.172Z,97849.19
2022-08-19T17:47:02.179Z,97876.91
2022-08-19T17:49:28.726Z,97899.53
2022-08-19T17:51:55.696Z,97834.97
2022-08-19T17:54:22.251Z,97896.63
2022-08-19T17:56:49.042Z,97884.00
2022-08-19T17:59:16.761Z,97934.03
2022-08-19T18:01:53.468Z,97852.81
2022-08-19T18:04:22.714Z,97897.63
2022-08-19T18:06:52.962Z,97849.44
2022-08-19T18:09:24.045Z,97904.00
2022-08-19T18:11:53.258Z,97890.66
2022-08-19T18:14:22.613Z,97904.00
2022-08-19T18:16:49.252Z,97868.63
2022-08-19T18:19:16.427Z,97864.91
2022-08-19T18:21:42.995Z,97884.44
2022-08-19T18:24:09.604Z,97946.63
2022-08-19T18:26:36.175Z,97907.84
2022-08-19T18:29:03.139Z,97893.56
2022-08-19T18:31:29.678Z,97893.34
2022-08-19T18:33:56.429Z,97752.34
2022-08-19T18:36:50.194Z,97831.94
2022-08-19T18:39:09.865Z,97952.50
2022-08-19T18:41:39.100Z,97969.75
2022-08-19T18:44:05.692Z,97919.78
2022-08-19T18:46:32.995Z,97930.25
2022-08-19T18:49:03.513Z,97871.72
2022-08-19T18:51:30.079Z,97911.22
2022-08-19T18:53:56.909Z,97971.91
2022-08-19T18:56:23.496Z,97911.25
2022-08-19T18:58:50.280Z,97861.50
2022-08-19T19:01:21.118Z,97987.84
2022-08-19T19:03:51.591Z,97903.19
2022-08-19T19:06:24.848Z,97983.84
2022-08-19T19:08:53.417Z,97986.28
2022-08-19T19:11:24.795Z,97987.91
2022-08-19T19:13:52.136Z,97918.38
2022-08-19T19:16:23.752Z,97941.00
2022-08-19T19:18:51.019Z,97907.78
2022-08-19T19:21:19.143Z,97983.97
2022-08-19T19:23:46.000Z,97963.34
2022-08-19T19:26:13.380Z,97976.56
2022-08-19T19:28:41.767Z,98020.34
2022-08-19T19:31:08.348Z,97956.25
2022-08-19T19:33:34.937Z,97953.59
2022-08-19T19:36:01.523Z,98019.66
2022-08-19T19:38:28.361Z,97944.59
2022-08-19T19:40:54.883Z,98009.50
2022-08-19T19:43:21.647Z,97977.94
2022-08-19T19:45:48.510Z,97999.16
2022-08-19T19:48:15.659Z,98029.47
2022-08-19T19:50:44.017Z,98017.69
2022-08-19T19:53:11.119Z,98000.81
2022-08-19T19:55:37.661Z,97969.69
2022-08-19T19:58:04.370Z,98004.91
2022-08-19T20:00:30.945Z,97987.69
2022-08-19T20:02:57.538Z,97979.63
2022-08-19T20:05:25.075Z,97997.91
2022-08-19T20:07:54.559Z,98012.72
2022-08-19T20:10:21.714Z,97991.84
2022-08-19T20:12:48.491Z,98035.91
2022-08-19T20:15:15.138Z,97974.66
2022-08-19T20:17:41.792Z,98030.84
2022-08-19T20:20:13.773Z,98032.72
2022-08-19T20:22:41.733Z,98025.97
2022-08-19T20:25:09.313Z,98040.50
2022-08-19T20:27:39.854Z,98006.66
2022-08-19T20:30:13.074Z,98081.88
2022-08-19T20:32:46.321Z,98014.44
2022-08-19T20:35:14.764Z,98028.16
2022-08-19T20:37:41.763Z,98055.03
2022-08-19T20:40:09.748Z,98049.38
2022-08-19T20:42:39.707Z,98018.47
2022-08-19T20:45:08.294Z,98035.38
2022-08-19T20:47:45.078Z,98039.63
2022-08-19T20:50:11.702Z,98031.78
2022-08-19T20:52:39.140Z,98007.88
2022-08-19T20:55:06.182Z,98011.34
2022-08-19T20:57:32.893Z,98033.38
2022-08-19T20:59:59.481Z,98041.97
2022-08-19T21:02:26.280Z,98019.13
2022-08-19T21:04:52.844Z,98026.13
2022-08-19T21:07:25.627Z,98086.13
2022-08-19T21:10:06.227Z,98071.00
2022-08-19T21:12:32.815Z,98017.16
2022-08-19T21:14:59.450Z,98030.84
2022-08-19T21:17:26.090Z,98057.50
2022-08-19T21:19:52.683Z,98048.06
2022-08-19T21:22:19.236Z,98040.28
2022-08-19T21:24:45.959Z,98059.94
2022-08-19T21:27:12.533Z,98049.69
2022-08-19T21:29:39.179Z,98019.31
2022-08-19T21:32:05.995Z,98044.59
2022-08-19T21:34:32.587Z,98004.72
2022-08-19T21:36:59.150Z,98058.53
2022-08-19T21:39:25.841Z,98015.22
2022-08-19T21:41:52.424Z,98013.81
2022-08-19T21:44:19.091Z,98023.22
2022-08-19T21:46:45.781Z,98028.31
2022-08-19T21:49:17.346Z,98022.91
2022-08-19T21:51:43.998Z,98054.13
2022-08-19T21:54:14.150Z,98085.31
2022-08-19T21:56:41.852Z,98007.22
2022-08-19T21:59:08.543Z,98028.75
2022-08-19T22:01:35.165Z,98014.78
2022-08-19T22:04:01.826Z,98068.28
2022-08-19T22:06:28.461Z,98048.06
2022-08-19T22:08:55.633Z,98042.69
2022-08-19T22:11:24.233Z,98046.41
2022-08-19T22:13:51.058Z,98056.09
2022-08-19T22:16:17.885Z,98088.91
2022-08-19T22:18:44.567Z,98053.19
2022-08-19T22:21:12.319Z,98036.41
2022-08-19T22:23:42.629Z,98082.66
2022-08-19T22:26:09.287Z,98018.59
2022-08-19T22:28:36.233Z,98078.09
2022-08-19T22:31:03.419Z,98025.81
2022-08-19T22:33:30.436Z,98031.63
2022-08-19T22:35:57.040Z,98032.09
2022-08-19T22:38:23.798Z,98035.31
2022-08-19T22:40:52.396Z,98085.72
2022-08-19T22:43:25.079Z,98058.59
2022-08-19T22:45:53.675Z,98020.56
2022-08-19T22:48:23.862Z,98021.53
2022-08-19T22:50:51.894Z,98089.66
2022-08-19T22:53:18.434Z,98036.53
2022-08-19T22:55:45.173Z,98061.16
2022-08-19T22:58:11.950Z,98007.59
2022-08-19T23:00:38.625Z,98016.00
2022-08-19T23:03:05.254Z,98061.06
2022-08-19T23:05:31.949Z,98053.75
2022-08-19T23:07:58.972Z,98035.75
2022-08-19T23:10:27.980Z,98084.34
2022-08-19T23:12:57.231Z,98051.88
2022-08-19T23:15:26.541Z,98085.56
2022-08-19T23:17:56.300Z,98032.97
2022-08-19T23:20:24.865Z,98033.78
2022-08-19T23:22:51.436Z,98010.81
2022-08-19T23:25:22.502Z,98092.66
2022-08-19T23:27:49.872Z,98079.72
2022-08-19T23:30:16.548Z,98093.78
2022-08-19T23:32:43.204Z,98017.97
2022-08-19T23:35:09.829Z,98074.19
2022-08-19T23:37:36.490Z,98052.97
2022-08-19T23:40:05.836Z,98086.44
2022-08-19T23:42:32.890Z,98043.84
2022-08-19T23:45:01.567Z,98047.50
2022-08-19T23:47:28.624Z,98085.47
2022-08-19T23:49:56.439Z,98083.00
2022-08-19T23:52:23.530Z,98017.34
2022-08-19T23:54:50.090Z,98055.34
2022-08-19T23:57:16.969Z,98038.03
2022-08-19T23:59:44.062Z,97960.06
